createdAt,value
2022-08-27T00:00:00.371Z,4.10
2022-08-27T00:01:00.303Z,4.10
2022-08-27T00:02:00.442Z,4.10
2022-08-27T00:03:00.312Z,4.10
2022-08-27T00:04:00.390Z,4.10
2022-08-27T00:05:01.213Z,4.10
2022-08-27T00:06:00.255Z,4.10
2022-08-27T00:07:00.755Z,4.10
2022-08-27T00:08:00.306Z,4.10
2022-08-27T00:09:00.481Z,4.10
2022-08-27T00:10:00.381Z,4.10
2022-08-27T00:11:00.310Z,4.10
2022-08-27T00:12:01.036Z,4.20
2022-08-27T00:13:00.580Z,4.20
2022-08-27T00:14:01.033Z,4.20
2022-08-27T00:15:00.381Z,4.20
2022-08-27T00:16:00.269Z,4.20
2022-08-27T00:17:00.352Z,4.20
2022-08-27T00:18:00.275Z,4.20
2022-08-27T00:19:00.402Z,4.20
2022-08-27T00:20:00.604Z,4.20
2022-08-27T00:21:00.787Z,4.20
2022-08-27T00:22:00.305Z,4.20
2022-08-27T00:23:00.297Z,4.20
2022-08-27T00:24:00.308Z,4.20
2022-08-27T00:25:00.380Z,4.20
2022-08-27T00:26:00.321Z,4.20
2022-08-27T00:27:00.373Z,4.20
2022-08-27T00:28:00.298Z,4.20
2022-08-27T00:29:00.470Z,4.20
2022-08-27T00:30:00.311Z,4.20
2022-08-27T00:31:00.313Z,4.20
2022-08-27T00:32:00.426Z,4.20
2022-08-27T00:33:00.308Z,4.20
2022-08-27T00:34:00.485Z,4.20
2022-08-27T00:35:00.395Z,4.20
2022-08-27T00:36:00.269Z,4.20
2022-08-27T00:37:00.381Z,4.20
2022-08-27T00:38:00.256Z,4.20
2022-08-27T00:39:00.262Z,4.20
2022-08-27T00:40:00.765Z,4.20
2022-08-27T00:41:00.259Z,4.20
2022-08-27T00:42:00.275Z,4.00
2022-08-27T00:43:00.316Z,4.00
2022-08-27T00:44:00.592Z,4.00
2022-08-27T00:45:00.754Z,4.00
2022-08-27T00:46:03.933Z,4.00
2022-08-27T00:47:03.283Z,4.00
2022-08-27T00:48:00.288Z,4.00
2022-08-27T00:49:10.184Z,4.00
2022-08-27T00:50:04.355Z,4.00
2022-08-27T00:51:01.097Z,4.00
2022-08-27T00:52:03.499Z,4.00
2022-08-27T00:53:04.307Z,4.00
2022-08-27T00:54:01.067Z,4.00
2022-08-27T00:55:04.875Z,4.00
2022-08-27T00:56:03.594Z,4.00
2022-08-27T00:57:01.681Z,4.00
2022-08-27T00:58:10.275Z,4.00
2022-08-27T00:59:01.531Z,4.00
2022-08-27T01:00:00.721Z,4.00
2022-08-27T01:01:00.558Z,4.00
2022-08-27T01:02:00.611Z,4.00
2022-08-27T01:03:00.272Z,4.00
2022-08-27T01:04:02.727Z,4.00
2022-08-27T01:05:03.680Z,4.00
2022-08-27T01:06:01.767Z,4.00
2022-08-27T01:07:00.345Z,4.00
2022-08-27T01:08:03.305Z,4.00
2022-08-27T01:09:10.182Z,4.00
2022-08-27T01:10:01.615Z,4.00
2022-08-27T01:11:00.864Z,4.00
2022-08-27T01:12:00.738Z,4.10
2022-08-27T01:13:00.535Z,4.10
2022-08-27T01:14:01.661Z,4.10
2022-08-27T01:15:01.859Z,4.10
2022-08-27T01:16:00.374Z,4.10
2022-08-27T01:17:00.992Z,4.10
2022-08-27T01:18:02.644Z,4.10
2022-08-27T01:19:00.595Z,4.10
2022-08-27T01:20:02.508Z,4.10
2022-08-27T01:21:08.703Z,4.10
2022-08-27T01:22:10.208Z,4.10
2022-08-27T01:23:10.211Z,4.10
2022-08-27T01:24:07.691Z,4.10
2022-08-27T01:25:03.352Z,4.10
2022-08-27T01:26:01.547Z,4.10
2022-08-27T01:27:02.720Z,4.10
2022-08-27T01:28:01.607Z,4.10
2022-08-27T01:29:00.348Z,4.10
2022-08-27T01:30:00.580Z,4.10
2022-08-27T01:31:00.932Z,4.10
2022-08-27T01:32:09.366Z,4.10
2022-08-27T01:33:00.276Z,4.10
2022-08-27T01:34:01.852Z,4.10
2022-08-27T01:35:01.558Z,4.10
2022-08-27T01:36:00.296Z,4.10
2022-08-27T01:37:00.359Z,4.10
2022-08-27T01:38:00.934Z,4.10
2022-08-27T01:39:00.310Z,4.10
2022-08-27T01:40:01.037Z,4.10
2022-08-27T01:41:00.761Z,4.10
2022-08-27T01:42:05.286Z,4.30
2022-08-27T01:43:00.392Z,4.30
2022-08-27T01:44:00.274Z,4.30
2022-08-27T01:45:05.585Z,4.30
2022-08-27T01:46:00.263Z,4.30
2022-08-27T01:47:00.341Z,4.30
2022-08-27T01:48:00.929Z,4.30
2022-08-27T01:49:00.306Z,4.30
2022-08-27T01:50:00.495Z,4.30
2022-08-27T01:51:00.309Z,4.30
2022-08-27T01:52:00.308Z,4.30
2022-08-27T01:53:07.185Z,4.30
2022-08-27T01:54:00.298Z,4.30
2022-08-27T01:55:00.316Z,4.30
2022-08-27T01:56:00.285Z,4.30
2022-08-27T01:57:00.288Z,4.30
2022-08-27T01:58:00.303Z,4.30
2022-08-27T01:59:00.265Z,4.30
2022-08-27T02:00:10.294Z,4.30
2022-08-27T02:01:02.508Z,4.30
2022-08-27T02:02:00.723Z,4.30
2022-08-27T02:03:00.280Z,4.30
2022-08-27T02:04:00.282Z,4.30
2022-08-27T02:05:00.359Z,4.30
2022-08-27T02:06:02.328Z,4.30
2022-08-27T02:07:00.261Z,4.30
2022-08-27T02:08:00.694Z,4.30
2022-08-27T02:09:00.297Z,4.30
2022-08-27T02:10:00.284Z,4.30
2022-08-27T02:11:00.705Z,4.30
2022-08-27T02:12:00.457Z,5.00
2022-08-27T02:13:00.316Z,5.00
2022-08-27T02:14:00.282Z,5.00
2022-08-27T02:15:00.387Z,5.00
2022-08-27T02:16:00.347Z,5.00
2022-08-27T02:17:00.581Z,5.00
2022-08-27T02:18:00.856Z,5.00
2022-08-27T02:19:00.266Z,5.00
2022-08-27T02:20:00.338Z,5.00
2022-08-27T02:21:00.280Z,5.00
2022-08-27T02:22:00.530Z,5.00
2022-08-27T02:23:00.527Z,5.00
2022-08-27T02:24:00.542Z,5.00
2022-08-27T02:25:00.447Z,5.00
2022-08-27T02:26:00.303Z,5.00
2022-08-27T02:27:00.260Z,5.00
2022-08-27T02:28:00.625Z,5.00
2022-08-27T02:29:00.279Z,5.00
2022-08-27T02:30:00.355Z,5.00
2022-08-27T02:31:00.314Z,5.00
2022-08-27T02:32:00.286Z,5.00
2022-08-27T02:33:01.011Z,5.00
2022-08-27T02:34:00.275Z,5.00
2022-08-27T02:35:00.746Z,5.00
2022-08-27T02:36:00.373Z,5.00
2022-08-27T02:37:00.280Z,5.00
2022-08-27T02:38:00.285Z,5.00
2022-08-27T02:39:00.281Z,5.00
2022-08-27T02:40:00.390Z,5.00
2022-08-27T02:41:00.464Z,5.00
2022-08-27T02:42:00.305Z,4.80
2022-08-27T02:43:00.459Z,4.80
2022-08-27T02:44:01.286Z,4.80
2022-08-27T02:45:00.282Z,4.80
2022-08-27T02:46:00.319Z,4.80
2022-08-27T02:47:01.113Z,4.80
2022-08-27T02:48:00.291Z,4.80
2022-08-27T02:49:00.256Z,4.80
2022-08-27T02:50:00.762Z,4.80
2022-08-27T02:51:00.282Z,4.80
2022-08-27T02:52:00.288Z,4.80
2022-08-27T02:53:01.358Z,4.80
2022-08-27T02:54:01.095Z,4.80
2022-08-27T02:55:00.554Z,4.80
2022-08-27T02:56:00.280Z,4.80
2022-08-27T02:57:00.376Z,4.80
2022-08-27T02:58:00.383Z,4.80
2022-08-27T02:59:00.349Z,4.80
2022-08-27T03:00:01.669Z,4.80
2022-08-27T03:01:00.587Z,4.80
2022-08-27T03:02:00.375Z,4.80
2022-08-27T03:03:00.950Z,4.80
2022-08-27T03:04:00.263Z,4.80
2022-08-27T03:05:00.363Z,4.80
2022-08-27T03:06:00.296Z,4.80
2022-08-27T03:07:00.287Z,4.80
2022-08-27T03:08:00.298Z,4.80
2022-08-27T03:09:00.272Z,4.80
2022-08-27T03:10:00.301Z,4.80
2022-08-27T03:11:00.256Z,4.80
2022-08-27T03:12:00.459Z,6.00
2022-08-27T03:13:00.252Z,6.00
2022-08-27T03:14:00.266Z,6.00
2022-08-27T03:15:00.285Z,6.00
2022-08-27T03:16:00.500Z,6.00
2022-08-27T03:17:00.284Z,6.00
2022-08-27T03:18:00.259Z,6.00
2022-08-27T03:19:00.299Z,6.00
2022-08-27T03:20:00.268Z,6.00
2022-08-27T03:21:00.650Z,6.00
2022-08-27T03:22:00.317Z,6.00
2022-08-27T03:23:00.254Z,6.00
2022-08-27T03:24:00.472Z,6.00
2022-08-27T03:25:01.100Z,6.00
2022-08-27T03:26:02.390Z,6.00
2022-08-27T03:27:00.364Z,6.00
2022-08-27T03:28:00.292Z,6.00
2022-08-27T03:29:00.279Z,6.00
2022-08-27T03:30:03.878Z,6.00
2022-08-27T03:31:01.757Z,6.00
2022-08-27T03:32:00.348Z,6.00
2022-08-27T03:33:00.312Z,6.00
2022-08-27T03:34:02.128Z,6.00
2022-08-27T03:35:00.267Z,6.00
2022-08-27T03:36:00.263Z,6.00
2022-08-27T03:37:00.261Z,6.00
2022-08-27T03:38:00.279Z,6.00
2022-08-27T03:39:00.278Z,6.00
2022-08-27T03:40:00.383Z,6.00
2022-08-27T03:41:00.874Z,6.00
2022-08-27T03:42:00.343Z,5.80
2022-08-27T03:43:00.273Z,5.80
2022-08-27T03:44:00.302Z,5.80
2022-08-27T03:45:00.388Z,5.80
2022-08-27T03:46:02.486Z,5.80
2022-08-27T03:47:00.283Z,5.80
2022-08-27T03:48:00.272Z,5.80
2022-08-27T03:49:00.256Z,5.80
2022-08-27T03:50:00.611Z,5.80
2022-08-27T03:51:10.088Z,5.80
2022-08-27T03:52:00.410Z,5.80
2022-08-27T03:53:00.276Z,5.80
2022-08-27T03:54:00.259Z,5.80
2022-08-27T03:55:00.746Z,5.80
2022-08-27T03:56:00.277Z,5.80
2022-08-27T03:57:00.461Z,5.80
2022-08-27T03:58:00.272Z,5.80
2022-08-27T03:59:00.252Z,5.80
2022-08-27T04:00:00.340Z,5.80
2022-08-27T04:01:00.391Z,5.80
2022-08-27T04:02:00.620Z,5.80
2022-08-27T04:03:00.334Z,5.80
2022-08-27T04:04:00.261Z,5.80
2022-08-27T04:05:00.410Z,5.80
2022-08-27T04:06:00.420Z,5.80
2022-08-27T04:07:00.264Z,5.80
2022-08-27T04:08:00.310Z,5.80
2022-08-27T04:09:00.832Z,5.80
2022-08-27T04:10:00.267Z,5.80
2022-08-27T04:11:04.202Z,5.80
2022-08-27T04:12:00.266Z,5.60
2022-08-27T04:13:00.293Z,5.60
2022-08-27T04:14:01.943Z,5.60
2022-08-27T04:15:00.605Z,5.60
2022-08-27T04:16:00.363Z,5.60
2022-08-27T04:17:00.263Z,5.60
2022-08-27T04:18:00.281Z,5.60
2022-08-27T04:19:00.912Z,5.60
2022-08-27T04:20:08.638Z,5.60
2022-08-27T04:21:05.992Z,5.60
2022-08-27T04:22:01.582Z,5.60
2022-08-27T04:23:00.324Z,5.60
2022-08-27T04:24:00.805Z,5.60
2022-08-27T04:25:00.677Z,5.60
2022-08-27T04:26:02.913Z,5.60
2022-08-27T04:27:01.143Z,5.60
2022-08-27T04:28:00.274Z,5.60
2022-08-27T04:29:00.289Z,5.60
2022-08-27T04:30:00.955Z,5.60
2022-08-27T04:31:01.698Z,5.60
2022-08-27T04:32:00.551Z,5.60
2022-08-27T04:33:00.282Z,5.60
2022-08-27T04:34:00.293Z,5.60
2022-08-27T04:35:00.276Z,5.60
2022-08-27T04:36:01.564Z,5.60
2022-08-27T04:37:00.467Z,5.60
2022-08-27T04:38:00.293Z,5.60
2022-08-27T04:39:00.277Z,5.60
2022-08-27T04:40:00.357Z,5.60
2022-08-27T04:41:02.950Z,5.60
2022-08-27T04:42:00.490Z,5.60
2022-08-27T04:43:00.274Z,5.60
2022-08-27T04:44:03.391Z,5.60
2022-08-27T04:45:00.351Z,5.60
2022-08-27T04:46:00.353Z,5.60
2022-08-27T04:47:01.286Z,5.60
2022-08-27T04:48:00.254Z,5.60
2022-08-27T04:49:01.541Z,5.60
2022-08-27T04:50:00.486Z,5.60
2022-08-27T04:51:00.352Z,5.60
2022-08-27T04:52:00.265Z,5.60
2022-08-27T04:53:00.287Z,5.60
2022-08-27T04:54:01.222Z,5.60
2022-08-27T04:55:00.274Z,5.60
2022-08-27T04:56:00.263Z,5.60
2022-08-27T04:57:02.261Z,5.60
2022-08-27T04:58:00.255Z,5.60
2022-08-27T04:59:00.763Z,5.60
2022-08-27T05:00:00.359Z,5.60
2022-08-27T05:01:00.308Z,5.60
2022-08-27T05:02:01.044Z,5.60
2022-08-27T05:03:00.273Z,5.60
2022-08-27T05:04:00.409Z,5.60
2022-08-27T05:05:00.373Z,5.60
2022-08-27T05:06:02.093Z,5.60
2022-08-27T05:07:00.291Z,5.60
2022-08-27T05:08:00.494Z,5.60
2022-08-27T05:09:00.287Z,5.60
2022-08-27T05:10:00.274Z,5.60
2022-08-27T05:11:00.770Z,5.60
2022-08-27T05:12:00.329Z,6.30
2022-08-27T05:13:00.268Z,6.30
2022-08-27T05:14:01.443Z,6.30
2022-08-27T05:15:00.285Z,6.30
2022-08-27T05:16:02.138Z,6.30
2022-08-27T05:17:00.317Z,6.30
2022-08-27T05:18:00.646Z,6.30
2022-08-27T05:19:00.295Z,6.30
2022-08-27T05:20:00.275Z,6.30
2022-08-27T05:21:00.328Z,6.30
2022-08-27T05:22:00.326Z,6.30
2022-08-27T05:23:00.392Z,6.30
2022-08-27T05:24:01.551Z,6.30
2022-08-27T05:25:00.265Z,6.30
2022-08-27T05:26:00.677Z,6.30
2022-08-27T05:27:00.250Z,6.30
2022-08-27T05:28:00.265Z,6.30
2022-08-27T05:29:00.843Z,6.30
2022-08-27T05:30:00.472Z,6.30
2022-08-27T05:31:03.707Z,6.30
2022-08-27T05:32:00.266Z,6.30
2022-08-27T05:33:00.279Z,6.30
2022-08-27T05:34:00.867Z,6.30
2022-08-27T05:35:00.315Z,6.30
2022-08-27T05:36:00.672Z,6.30
2022-08-27T05:37:00.294Z,6.30
2022-08-27T05:38:00.274Z,6.30
2022-08-27T05:39:01.260Z,6.30
2022-08-27T05:40:00.786Z,6.30
2022-08-27T05:41:09.218Z,6.30
2022-08-27T05:42:00.260Z,7.10
2022-08-27T05:43:00.401Z,7.10
2022-08-27T05:44:10.416Z,7.10
2022-08-27T05:45:00.270Z,7.10
2022-08-27T05:46:03.397Z,7.10
2022-08-27T05:47:01.231Z,7.10
2022-08-27T05:48:00.328Z,7.10
2022-08-27T05:49:00.270Z,7.10
2022-08-27T05:50:00.319Z,7.10
2022-08-27T05:51:10.165Z,7.10
2022-08-27T05:52:00.293Z,7.10
2022-08-27T05:53:00.267Z,7.10
2022-08-27T05:54:08.463Z,7.10
2022-08-27T05:55:00.328Z,7.10
2022-08-27T05:56:00.282Z,7.10
2022-08-27T05:57:00.258Z,7.10
2022-08-27T05:58:00.275Z,7.10
2022-08-27T05:59:00.625Z,7.10
2022-08-27T06:00:00.441Z,7.10
2022-08-27T06:01:03.025Z,7.10
2022-08-27T06:02:00.269Z,7.10
2022-08-27T06:03:00.355Z,7.10
2022-08-27T06:04:00.611Z,7.10
2022-08-27T06:05:00.357Z,7.10
2022-08-27T06:06:01.260Z,7.10
2022-08-27T06:07:00.485Z,7.10
2022-08-27T06:08:00.252Z,7.10
2022-08-27T06:09:00.400Z,7.10
2022-08-27T06:10:00.400Z,7.10
2022-08-27T06:11:00.796Z,7.10
2022-08-27T06:12:00.581Z,8.80
2022-08-27T06:13:00.280Z,8.80
2022-08-27T06:14:00.261Z,8.80
2022-08-27T06:15:00.601Z,8.80
2022-08-27T06:16:01.763Z,8.80
2022-08-27T06:17:00.697Z,8.80
2022-08-27T06:18:00.278Z,8.80
2022-08-27T06:19:00.941Z,8.80
2022-08-27T06:20:00.252Z,8.80
2022-08-27T06:21:00.540Z,8.80
2022-08-27T06:22:10.400Z,8.80
2022-08-27T06:23:00.313Z,8.80
2022-08-27T06:24:00.619Z,8.80
2022-08-27T06:25:00.267Z,8.80
2022-08-27T06:26:00.608Z,8.80
2022-08-27T06:27:00.468Z,8.80
2022-08-27T06:28:00.262Z,8.80
2022-08-27T06:29:01.047Z,8.80
2022-08-27T06:30:00.354Z,8.80
2022-08-27T06:31:02.468Z,8.80
2022-08-27T06:32:00.273Z,8.80
2022-08-27T06:33:00.256Z,8.80
2022-08-27T06:34:02.971Z,8.80
2022-08-27T06:35:00.270Z,8.80
2022-08-27T06:36:00.809Z,8.80
2022-08-27T06:37:00.452Z,8.80
2022-08-27T06:38:00.258Z,8.80
2022-08-27T06:39:00.275Z,8.80
2022-08-27T06:40:00.389Z,8.80
2022-08-27T06:41:01.948Z,8.80
2022-08-27T06:42:00.765Z,11.90
2022-08-27T06:43:00.285Z,11.90
2022-08-27T06:44:00.278Z,11.90
2022-08-27T06:45:00.271Z,11.90
2022-08-27T06:46:02.438Z,11.90
2022-08-27T06:47:00.272Z,11.90
2022-08-27T06:48:00.346Z,11.90
2022-08-27T06:49:00.267Z,11.90
2022-08-27T06:50:00.390Z,11.90
2022-08-27T06:51:05.789Z,11.90
2022-08-27T06:52:00.266Z,11.90
2022-08-27T06:53:00.264Z,11.90
2022-08-27T06:54:01.917Z,11.90
2022-08-27T06:55:00.358Z,11.90
2022-08-27T06:56:00.259Z,11.90
2022-08-27T06:57:00.281Z,11.90
2022-08-27T06:58:00.273Z,11.90
2022-08-27T06:59:01.547Z,11.90
2022-08-27T07:00:00.354Z,11.90
2022-08-27T07:01:00.422Z,11.90
2022-08-27T07:02:00.349Z,11.90
2022-08-27T07:03:00.256Z,11.90
2022-08-27T07:04:01.547Z,11.90
2022-08-27T07:05:00.330Z,11.90
2022-08-27T07:06:04.168Z,11.90
2022-08-27T07:07:00.610Z,11.90
2022-08-27T07:08:00.689Z,11.90
2022-08-27T07:09:00.974Z,11.90
2022-08-27T07:10:00.278Z,11.90
2022-08-27T07:11:00.380Z,11.90
2022-08-27T07:12:00.757Z,11.40
2022-08-27T07:13:00.532Z,11.40
2022-08-27T07:14:00.391Z,11.40
2022-08-27T07:15:00.303Z,11.40
2022-08-27T07:16:04.527Z,11.40
2022-08-27T07:17:00.311Z,11.40
2022-08-27T07:18:00.261Z,11.40
2022-08-27T07:19:04.236Z,11.40
2022-08-27T07:20:00.351Z,11.40
2022-08-27T07:21:00.301Z,11.40
2022-08-27T07:22:00.273Z,11.40
2022-08-27T07:23:00.269Z,11.40
2022-08-27T07:24:01.398Z,11.40
2022-08-27T07:25:00.339Z,11.40
2022-08-27T07:26:00.324Z,11.40
2022-08-27T07:27:00.302Z,11.40
2022-08-27T07:28:00.262Z,11.40
2022-08-27T07:29:00.300Z,11.40
2022-08-27T07:30:00.303Z,11.40
2022-08-27T07:31:00.294Z,11.40
2022-08-27T07:32:00.290Z,11.40
2022-08-27T07:33:00.285Z,11.40
2022-08-27T07:34:00.882Z,11.40
2022-08-27T07:35:00.277Z,11.40
2022-08-27T07:36:00.581Z,11.40
2022-08-27T07:37:00.259Z,11.40
2022-08-27T07:38:00.261Z,11.40
2022-08-27T07:39:01.654Z,11.40
2022-08-27T07:40:00.379Z,11.40
2022-08-27T07:41:04.835Z,11.40
2022-08-27T07:42:00.272Z,13.60
2022-08-27T07:43:00.260Z,13.60
2022-08-27T07:44:00.625Z,13.60
2022-08-27T07:45:00.260Z,13.60
2022-08-27T07:46:00.981Z,13.60
2022-08-27T07:47:00.455Z,13.60
2022-08-27T07:48:00.281Z,13.60
2022-08-27T07:49:00.388Z,13.60
2022-08-27T07:50:00.274Z,13.60
2022-08-27T07:51:01.140Z,13.60
2022-08-27T07:52:00.965Z,13.60
2022-08-27T07:53:00.280Z,13.60
2022-08-27T07:54:00.303Z,13.60
2022-08-27T07:55:00.269Z,13.60
2022-08-27T07:56:04.297Z,13.60
2022-08-27T07:57:00.322Z,13.60
2022-08-27T07:58:00.269Z,13.60
2022-08-27T07:59:00.309Z,13.60
2022-08-27T08:00:01.404Z,13.60
2022-08-27T08:01:00.727Z,13.60
2022-08-27T08:02:00.265Z,13.60
2022-08-27T08:03:00.414Z,13.60
2022-08-27T08:04:00.262Z,13.60
2022-08-27T08:05:00.336Z,13.60
2022-08-27T08:06:04.609Z,13.60
2022-08-27T08:07:00.260Z,13.60
2022-08-27T08:08:00.271Z,13.60
2022-08-27T08:09:00.267Z,13.60
2022-08-27T08:10:00.282Z,13.60
2022-08-27T08:11:00.270Z,13.60
2022-08-27T08:12:00.287Z,10.00
2022-08-27T08:13:00.349Z,10.00
2022-08-27T08:14:00.483Z,10.00
2022-08-27T08:15:00.417Z,10.00
2022-08-27T08:16:00.345Z,10.00
2022-08-27T08:17:01.157Z,10.00
2022-08-27T08:18:00.406Z,10.00
2022-08-27T08:19:00.369Z,10.00
2022-08-27T08:20:19.824Z,10.00
2022-08-27T08:21:08.648Z,10.00
2022-08-27T08:22:03.657Z,10.00
2022-08-27T08:23:00.274Z,10.00
2022-08-27T08:24:00.401Z,10.00
2022-08-27T08:25:00.322Z,10.00
2022-08-27T08:26:00.278Z,10.00
2022-08-27T08:27:03.878Z,10.00
2022-08-27T08:28:00.319Z,10.00
2022-08-27T08:29:00.455Z,10.00
2022-08-27T08:30:00.290Z,10.00
2022-08-27T08:31:00.314Z,10.00
2022-08-27T08:32:00.277Z,10.00
2022-08-27T08:33:00.299Z,10.00
2022-08-27T08:34:00.435Z,10.00
2022-08-27T08:35:00.341Z,10.00
2022-08-27T08:36:02.680Z,10.00
2022-08-27T08:37:00.313Z,10.00
2022-08-27T08:38:00.273Z,10.00
2022-08-27T08:39:00.287Z,10.00
2022-08-27T08:40:00.439Z,10.00
2022-08-27T08:41:00.636Z,10.00
2022-08-27T08:42:02.108Z,7.80
2022-08-27T08:43:00.687Z,7.80
2022-08-27T08:44:05.723Z,7.80
2022-08-27T08:45:01.646Z,7.80
2022-08-27T08:46:05.493Z,7.80
2022-08-27T08:47:04.433Z,7.80
2022-08-27T08:48:10.421Z,7.80
2022-08-27T08:49:01.753Z,7.80
2022-08-27T08:50:07.999Z,7.80
2022-08-27T08:51:01.256Z,7.80
2022-08-27T08:52:09.371Z,7.80
2022-08-27T08:53:04.313Z,7.80
2022-08-27T08:54:03.585Z,7.80
2022-08-27T08:55:10.171Z,7.80
2022-08-27T08:56:01.982Z,7.80
2022-08-27T08:57:06.837Z,7.80
2022-08-27T08:58:08.492Z,7.80
2022-08-27T08:59:00.271Z,7.80
2022-08-27T09:00:02.837Z,7.80
2022-08-27T09:01:02.362Z,7.80
2022-08-27T09:02:00.431Z,7.80
2022-08-27T09:03:00.266Z,7.80
2022-08-27T09:04:03.233Z,7.80
2022-08-27T09:05:02.752Z,7.80
2022-08-27T09:06:02.038Z,7.80
2022-08-27T09:07:01.362Z,7.80
2022-08-27T09:08:31.010Z,7.80
2022-08-27T09:09:07.210Z,7.80
2022-08-27T09:10:10.176Z,7.80
2022-08-27T09:11:10.166Z,7.80
2022-08-27T09:12:08.674Z,7.90
2022-08-27T09:13:02.070Z,7.90
2022-08-27T09:14:00.258Z,7.90
2022-08-27T09:15:12.389Z,7.90
2022-08-27T09:16:01.973Z,7.90
2022-08-27T09:17:01.142Z,7.90
2022-08-27T09:18:04.862Z,7.90
2022-08-27T09:19:01.130Z,7.90
2022-08-27T09:20:00.271Z,7.90
2022-08-27T09:21:08.818Z,7.90
2022-08-27T09:22:10.211Z,7.90
2022-08-27T09:23:07.583Z,7.90
2022-08-27T09:24:10.202Z,7.90
2022-08-27T09:25:10.201Z,7.90
2022-08-27T09:26:00.283Z,7.90
2022-08-27T09:27:00.582Z,7.90
2022-08-27T09:28:01.995Z,7.90
2022-08-27T09:29:02.060Z,7.90
2022-08-27T09:30:04.561Z,7.90
2022-08-27T09:31:08.938Z,7.90
2022-08-27T09:32:05.145Z,7.90
2022-08-27T09:33:01.838Z,7.90
2022-08-27T09:34:00.311Z,7.90
2022-08-27T09:35:03.566Z,7.90
2022-08-27T09:36:01.646Z,7.90
2022-08-27T09:37:05.090Z,7.90
2022-08-27T09:38:01.130Z,7.90
2022-08-27T09:39:03.262Z,7.90
2022-08-27T09:40:05.998Z,7.90
2022-08-27T09:41:04.355Z,7.90
2022-08-27T09:42:01.465Z,7.70
2022-08-27T09:43:10.201Z,7.70
2022-08-27T09:44:01.626Z,7.70
2022-08-27T09:45:00.844Z,7.70
2022-08-27T09:46:04.266Z,7.70
2022-08-27T09:47:01.102Z,7.70
2022-08-27T09:48:01.261Z,7.70
2022-08-27T09:49:10.176Z,7.70
2022-08-27T09:50:01.368Z,7.70
2022-08-27T09:51:01.773Z,7.70
2022-08-27T09:52:00.515Z,7.70
2022-08-27T09:53:00.299Z,7.70
2022-08-27T09:54:01.518Z,7.70
2022-08-27T09:55:00.967Z,7.70
2022-08-27T09:56:02.199Z,7.70
2022-08-27T09:57:00.310Z,7.70
2022-08-27T09:58:02.522Z,7.70
2022-08-27T09:59:00.254Z,7.70
2022-08-27T10:00:00.444Z,7.70
2022-08-27T10:01:03.852Z,7.70
2022-08-27T10:02:01.360Z,7.70
2022-08-27T10:03:00.990Z,7.70
2022-08-27T10:04:03.181Z,7.70
2022-08-27T10:05:03.179Z,7.70
2022-08-27T10:06:00.404Z,7.70
2022-08-27T10:07:10.211Z,7.70
2022-08-27T10:08:03.330Z,7.70
2022-08-27T10:09:07.292Z,7.70
2022-08-27T10:10:10.206Z,7.70
2022-08-27T10:11:03.162Z,7.70
2022-08-27T10:12:05.166Z,6.10
2022-08-27T10:13:02.348Z,6.10
2022-08-27T10:14:01.253Z,6.10
2022-08-27T10:15:02.929Z,6.10
2022-08-27T10:16:00.244Z,6.10
2022-08-27T10:17:01.297Z,6.10
2022-08-27T10:18:01.348Z,6.10
2022-08-27T10:19:03.566Z,6.10
2022-08-27T10:20:01.255Z,6.10
2022-08-27T10:21:05.529Z,6.10
2022-08-27T10:22:10.221Z,6.10
2022-08-27T10:23:07.660Z,6.10
2022-08-27T10:24:10.234Z,6.10
2022-08-27T10:25:07.883Z,6.10
2022-08-27T10:26:00.252Z,6.10
2022-08-27T10:27:10.170Z,6.10
2022-08-27T10:28:10.335Z,6.10
2022-08-27T10:29:10.192Z,6.10
2022-08-27T10:30:02.755Z,6.10
2022-08-27T10:31:08.907Z,6.10
2022-08-27T10:32:00.369Z,6.10
2022-08-27T10:33:10.538Z,6.10
2022-08-27T10:34:12.309Z,6.10
2022-08-27T10:35:01.262Z,6.10
2022-08-27T10:36:06.979Z,6.10
2022-08-27T10:37:09.077Z,6.10
2022-08-27T10:38:00.249Z,6.10
2022-08-27T10:39:05.334Z,6.10
2022-08-27T10:40:05.116Z,6.10
2022-08-27T10:41:00.290Z,6.10
2022-08-27T10:42:10.192Z,6.30
2022-08-27T10:43:00.244Z,6.30
2022-08-27T10:44:10.182Z,6.30
2022-08-27T10:45:00.237Z,6.30
2022-08-27T10:46:10.213Z,6.30
2022-08-27T10:47:03.522Z,6.30
2022-08-27T10:48:09.967Z,6.30
2022-08-27T10:49:07.536Z,6.30
2022-08-27T10:50:01.252Z,6.30
2022-08-27T10:51:06.930Z,6.30
2022-08-27T10:52:00.290Z,6.30
2022-08-27T10:53:05.244Z,6.30
2022-08-27T10:54:08.220Z,6.30
2022-08-27T10:55:07.661Z,6.30
2022-08-27T10:56:10.164Z,6.30
2022-08-27T10:57:28.665Z,6.30
2022-08-27T10:58:01.057Z,6.30
2022-08-27T10:59:10.183Z,6.30
2022-08-27T11:00:10.209Z,6.30
2022-08-27T11:01:10.209Z,6.30
2022-08-27T11:02:07.857Z,6.30
2022-08-27T11:03:04.139Z,6.30
2022-08-27T11:04:10.164Z,6.30
2022-08-27T11:05:05.745Z,6.30
2022-08-27T11:06:02.966Z,6.30
2022-08-27T11:07:01.257Z,6.30
2022-08-27T11:08:05.147Z,6.30
2022-08-27T11:09:07.496Z,6.30
2022-08-27T11:10:04.296Z,6.30
2022-08-27T11:11:35.117Z,6.30
2022-08-27T11:12:15.420Z,5.50
2022-08-27T11:13:05.802Z,5.50
2022-08-27T11:14:01.480Z,5.50
2022-08-27T11:15:04.100Z,5.50
2022-08-27T11:16:04.683Z,5.50
2022-08-27T11:17:07.688Z,5.50
2022-08-27T11:18:07.143Z,5.50
2022-08-27T11:19:05.321Z,5.50
2022-08-27T11:20:03.324Z,5.50
2022-08-27T11:21:04.833Z,5.50
2022-08-27T11:22:01.310Z,5.50
2022-08-27T11:23:07.794Z,5.50
2022-08-27T11:24:10.158Z,5.50
2022-08-27T11:25:00.256Z,5.50
2022-08-27T11:26:02.603Z,5.50
2022-08-27T11:27:02.417Z,5.50
2022-08-27T11:28:01.564Z,5.50
2022-08-27T11:29:04.603Z,5.50
2022-08-27T11:30:03.588Z,5.50
2022-08-27T11:31:05.630Z,5.50
2022-08-27T11:32:00.290Z,5.50
2022-08-27T11:33:13.795Z,5.50
2022-08-27T11:34:00.230Z,5.50
2022-08-27T11:35:02.547Z,5.50
2022-08-27T11:36:08.455Z,5.50
2022-08-27T11:37:10.004Z,5.50
2022-08-27T11:38:00.251Z,5.50
2022-08-27T11:39:04.582Z,5.50
2022-08-27T11:40:10.289Z,5.50
2022-08-27T11:41:01.253Z,5.50
2022-08-27T11:42:01.256Z,4.70
2022-08-27T11:43:03.149Z,4.70
2022-08-27T11:44:00.975Z,4.70
2022-08-27T11:45:06.645Z,4.70
2022-08-27T11:46:02.681Z,4.70
2022-08-27T11:47:07.838Z,4.70
2022-08-27T11:48:02.166Z,4.70
2022-08-27T11:49:01.813Z,4.70
2022-08-27T11:50:01.310Z,4.70
2022-08-27T11:51:01.629Z,4.70
2022-08-27T11:52:03.618Z,4.70
2022-08-27T11:53:03.120Z,4.70
2022-08-27T11:54:03.466Z,4.70
2022-08-27T11:55:10.182Z,4.70
2022-08-27T11:56:10.165Z,4.70
2022-08-27T11:57:00.281Z,4.70
2022-08-27T11:58:03.534Z,4.70
2022-08-27T11:59:10.163Z,4.70
2022-08-27T12:00:10.195Z,4.70
2022-08-27T12:01:04.583Z,4.70
2022-08-27T12:02:10.202Z,4.70
2022-08-27T12:03:01.333Z,4.70
2022-08-27T12:04:02.643Z,4.70
2022-08-27T12:05:10.170Z,4.70
2022-08-27T12:06:00.236Z,4.70
2022-08-27T12:07:01.251Z,4.70
2022-08-27T12:08:10.354Z,4.70
2022-08-27T12:09:10.150Z,4.70
2022-08-27T12:10:01.263Z,4.70
2022-08-27T12:11:10.166Z,4.70
2022-08-27T12:12:00.249Z,4.30
2022-08-27T12:13:05.954Z,4.30
2022-08-27T12:14:10.178Z,4.30
2022-08-27T12:15:10.174Z,4.30
2022-08-27T12:16:07.486Z,4.30
2022-08-27T12:17:10.165Z,4.30
2022-08-27T12:18:10.430Z,4.30
2022-08-27T12:19:01.273Z,4.30
2022-08-27T12:20:00.264Z,4.30
2022-08-27T12:21:10.171Z,4.30
2022-08-27T12:22:05.885Z,4.30
2022-08-27T12:23:10.168Z,4.30
2022-08-27T12:24:10.162Z,4.30
2022-08-27T12:25:00.337Z,4.30
2022-08-27T12:26:10.188Z,4.30
2022-08-27T12:27:10.160Z,4.30
2022-08-27T12:28:02.149Z,4.30
2022-08-27T12:29:10.170Z,4.30
2022-08-27T12:30:03.892Z,4.30
2022-08-27T12:31:00.456Z,4.30
2022-08-27T12:32:03.610Z,4.30
2022-08-27T12:33:10.182Z,4.30
2022-08-27T12:34:00.282Z,4.30
2022-08-27T12:35:03.596Z,4.30
2022-08-27T12:36:10.169Z,4.30
2022-08-27T12:37:00.563Z,4.30
2022-08-27T12:38:07.910Z,4.30
2022-08-27T12:39:00.258Z,4.30
2022-08-27T12:40:02.635Z,4.30
2022-08-27T12:41:00.702Z,4.30
2022-08-27T12:42:00.293Z,3.80
2022-08-27T12:43:10.177Z,3.80
2022-08-27T12:44:01.484Z,3.80
2022-08-27T12:45:00.262Z,3.80
2022-08-27T12:46:00.246Z,3.80
2022-08-27T12:47:04.681Z,3.80
2022-08-27T12:48:00.299Z,3.80
2022-08-27T12:49:01.322Z,3.80
2022-08-27T12:50:00.554Z,3.80
2022-08-27T12:51:01.584Z,3.80
2022-08-27T12:52:04.373Z,3.80
2022-08-27T12:53:09.475Z,3.80
2022-08-27T12:54:10.194Z,3.80
2022-08-27T12:55:10.185Z,3.80
2022-08-27T12:56:07.552Z,3.80
2022-08-27T12:57:10.167Z,3.80
2022-08-27T12:58:06.878Z,3.80
2022-08-27T12:59:07.366Z,3.80
2022-08-27T13:00:05.428Z,3.80
2022-08-27T13:01:10.262Z,3.80
2022-08-27T13:02:00.425Z,3.80
2022-08-27T13:03:03.529Z,3.80
2022-08-27T13:04:01.114Z,3.80
2022-08-27T13:05:02.864Z,3.80
2022-08-27T13:06:00.500Z,3.80
2022-08-27T13:07:00.278Z,3.80
2022-08-27T13:08:00.300Z,3.80
2022-08-27T13:09:01.711Z,3.80
2022-08-27T13:10:08.666Z,3.80
2022-08-27T13:11:09.113Z,3.80
2022-08-27T13:12:01.608Z,3.70
2022-08-27T13:13:00.278Z,3.70
2022-08-27T13:14:05.619Z,3.70